Time;durP1;ratioP1;P1;durP2;ratioP2;P2;SDS_P1;SDS_P2;PMS_P1;PMS_P2;Temp;Humidity;BMP_temperature;BMP_pressure;BME280_temperature;BME280_humidity;BME280_pressure;Samples;Min_cycle;Max_cycle;Signal;HPM_P1;HPM_P2
2023/03/27 00:02:23;;;;;;;7.30;1.60;;;;;;;;;;5093331;28;20036;-72
2023/03/27 00:04:49;;;;;;;6.50;1.45;;;;;;;;;;5093026;28;20040;-72
2023/03/27 00:07:15;;;;;;;5.50;1.30;;;;;;;;;;5090454;28;20070;-72
2023/03/27 00:09:43;;;;;;;9.63;2.00;;;;;;;;;;5092819;28;20036;-72
2023/03/27 00:12:09;;;;;;;11.10;1.50;;;;;;;;;;5092779;28;20040;-72
2023/03/27 00:14:35;;;;;;;7.85;1.75;;;;;;;;;;5092684;28;20040;-72
2023/03/27 00:17:01;;;;;;;6.72;1.50;;;;;;;;;;5092495;28;20058;-72
2023/03/27 00:19:27;;;;;;;10.10;1.60;;;;;;;;;;5089918;28;20060;-72
2023/03/27 00:21:54;;;;;;;5.50;1.60;;;;;;;;;;5092320;28;20101;-72
2023/03/27 00:24:21;;;;;;;12.43;2.03;;;;;;;;;;5092704;28;20468;-72
2023/03/27 00:26:47;;;;;;;7.13;1.45;;;;;;;;;;5075412;28;20062;-72
2023/03/27 00:29:13;;;;;;;8.85;2.00;;;;;;;;;;5092323;28;20081;-72
2023/03/27 00:31:39;;;;;;;9.13;2.58;;;;;;;;;;5075880;28;20035;-72
2023/03/27 00:34:05;;;;;;;6.32;1.55;;;;;;;;;;5092251;28;20043;-72
2023/03/27 00:36:31;;;;;;;7.82;1.70;;;;;;;;;;5075640;28;20434;-72
2023/03/27 00:38:58;;;;;;;8.68;1.45;;;;;;;;;;5092253;28;20107;-72
2023/03/27 00:41:24;;;;;;;5.88;1.55;;;;;;;;;;5092156;28;20158;-72
2023/03/27 00:43:52;;;;;;;14.05;2.47;;;;;;;;;;5092303;28;20060;-72
2023/03/27 00:46:20;;;;;;;7.53;1.58;;;;;;;;;;5092089;28;20040;-72
2023/03/27 00:48:47;;;;;;;10.75;1.95;;;;;;;;;;5091915;28;20036;-71
2023/03/27 00:51:14;;;;;;;9.13;1.60;;;;;;;;;;5091993;28;20179;-71
2023/03/27 00:53:41;;;;;;;9.48;1.58;;;;;;;;;;5091923;28;20040;-71
2023/03/27 00:56:09;;;;;;;8.95;1.60;;;;;;;;;;5091910;28;20085;-72
2023/03/27 00:58:46;;;;;;;4.40;1.25;;;;;;;;;;5106744;28;20119;-72
2023/03/27 01:01:13;;;;;;;7.85;1.80;;;;;;;;;;5091548;28;20048;-72
2023/03/27 01:03:41;;;;;;;6.97;1.80;;;;;;;;;;5091708;28;20368;-72
2023/03/27 01:06:07;;;;;;;5.45;1.33;;;;;;;;;;5091722;28;20047;-73
2023/03/27 01:08:35;;;;;;;5.88;1.42;;;;;;;;;;5091922;28;20071;-72
2023/03/27 01:11:08;;;;;;;8.73;1.40;;;;;;;;;;5091740;28;20097;-72
2023/03/27 01:13:34;;;;;;;9.45;1.70;;;;;;;;;;5091822;28;20105;-69
2023/03/27 01:16:09;;;;;;;5.70;1.60;;;;;;;;;;5091575;28;20135;-69
2023/03/27 01:18:40;;;;;;;6.25;1.38;;;;;;;;;;5078232;27;20086;-69
2023/03/27 01:21:24;;;;;;;7.72;2.20;;;;;;;;;;5115488;27;20127;-71
2023/03/27 01:24:00;;;;;;;6.88;1.40;;;;;;;;;;5115006;27;20487;-72
2023/03/27 01:26:35;;;;;;;12.15;2.25;;;;;;;;;;5114983;27;20043;-72
2023/03/27 01:29:10;;;;;;;8.98;1.88;;;;;;;;;;5113054;27;20126;-72
2023/03/27 01:31:40;;;;;;;6.40;1.52;;;;;;;;;;5114969;27;20043;-69
2023/03/27 01:34:09;;;;;;;9.70;1.42;;;;;;;;;;5095742;27;20431;-69
2023/03/27 01:36:41;;;;;;;8.20;1.80;;;;;;;;;;5115041;27;20144;-70
2023/03/27 01:39:14;;;;;;;7.93;1.95;;;;;;;;;;5114847;27;20118;-69
2023/03/27 01:41:50;;;;;;;6.30;1.30;;;;;;;;;;5114969;27;20047;-69
2023/03/27 01:44:21;;;;;;;3.40;1.60;;;;;;;;;;5114570;27;20043;-69
2023/03/27 01:46:57;;;;;;;8.05;1.73;;;;;;;;;;5114731;27;20031;-69
2023/03/27 01:49:26;;;;;;;4.72;1.35;;;;;;;;;;5114669;27;20100;-69
2023/03/27 01:51:56;;;;;;;6.93;2.42;;;;;;;;;;5114670;27;20039;-69
2023/03/27 01:54:27;;;;;;;3.00;1.20;;;;;;;;;;5114874;28;20080;-69
2023/03/27 01:57:16;;;;;;;7.85;1.40;;;;;;;;;;5114761;28;20054;-71
2023/03/27 01:59:43;;;;;;;5.65;1.55;;;;;;;;;;5112481;28;20035;-69
2023/03/27 02:02:12;;;;;;;5.60;2.00;;;;;;;;;;5114591;28;20147;-69
2023/03/27 02:04:54;;;;;;;7.28;1.50;;;;;;;;;;5114564;28;20440;-69
2023/03/27 02:07:47;;;;;;;8.10;1.98;;;;;;;;;;5114361;28;20042;-69
2023/03/27 02:10:16;;;;;;;9.10;1.40;;;;;;;;;;5111196;27;20046;-69
2023/03/27 02:12:49;;;;;;;6.07;1.40;;;;;;;;;;5114742;28;20058;-69
2023/03/27 02:15:17;;;;;;;9.65;1.50;;;;;;;;;;5097813;28;20071;-69
2023/03/27 02:17:46;;;;;;;12.95;2.10;;;;;;;;;;5114535;28;20072;-69
2023/03/27 02:20:15;;;;;;;6.32;2.22;;;;;;;;;;5113968;28;20047;-69
2023/03/27 02:22:47;;;;;;;4.45;1.52;;;;;;;;;;5114310;27;20167;-69
2023/03/27 02:25:13;;;;;;;;;;;;;;;;;;5114932;28;20066;-69
2023/03/27 02:27:41;;;;;;;5.30;1.75;;;;;;;;;;5114676;28;20294;-69
2023/03/27 02:30:19;;;;;;;7.18;1.80;;;;;;;;;;5114371;28;20121;-70
2023/03/27 02:32:57;;;;;;;7.68;2.33;;;;;;;;;;5118069;28;20065;-70
2023/03/27 02:35:30;;;;;;;8.00;1.75;;;;;;;;;;5114654;28;20035;-68
2023/03/27 02:38:02;;;;;;;6.05;2.03;;;;;;;;;;5114220;28;20525;-69
2023/03/27 02:40:43;;;;;;;8.93;1.65;;;;;;;;;;5103260;28;20039;-69
2023/03/27 02:43:12;;;;;;;4.70;1.60;;;;;;;;;;5114161;28;20070;-70
2023/03/27 02:45:44;;;;;;;4.97;1.55;;;;;;;;;;5113044;27;20035;-70
2023/03/27 02:48:27;;;;;;;4.35;1.40;;;;;;;;;;5117930;27;20053;-70
2023/03/27 02:50:53;;;;;;;;;;;;;;;;;;5118156;27;20475;-70
2023/03/27 02:53:21;;;;;;;7.85;1.92;;;;;;;;;;5117938;27;19948;-70
2023/03/27 02:55:50;;;;;;;10.13;2.55;;;;;;;;;;5118043;27;20387;-70
2023/03/27 02:58:23;;;;;;;7.50;1.85;;;;;;;;;;5117975;27;21712;-70
2023/03/27 03:00:50;;;;;;;4.40;2.08;;;;;;;;;;5117163;27;20077;-70
2023/03/27 03:03:38;;;;;;;9.25;2.17;;;3.60;99.90;;;;;;5117838;27;20035;-70
2023/03/27 03:06:05;;;;;;;9.52;1.95;;;;;;;;;;5117408;27;20138;-70
2023/03/27 03:08:36;;;;;;;5.00;1.58;;;;;;;;;;5100719;27;20039;-72
2023/03/27 03:11:03;;;;;;;4.53;1.80;;;;;;;;;;5117593;27;20043;-70
2023/03/27 03:13:30;;;;;;;6.65;1.70;;;;;;;;;;5117457;27;20475;-73
2023/03/27 03:15:56;;;;;;;7.10;2.30;;;;;;;;;;5117384;27;20050;-70
2023/03/27 03:18:23;;;;;;;6.03;1.83;;;;;;;;;;5117831;27;20432;-72
2023/03/27 03:20:54;;;;;;;7.15;1.85;;;;;;;;;;5117504;27;20035;-72
2023/03/27 03:23:21;;;;;;;7.57;1.90;;;;;;;;;;5101487;27;20055;-72
2023/03/27 03:25:49;;;;;;;5.78;1.50;;;;;;;;;;5117583;27;20045;-72
2023/03/27 03:28:17;;;;;;;8.00;2.33;;;;;;;;;;5117505;27;20035;-72
2023/03/27 03:30:44;;;;;;;4.82;1.50;;;;;;;;;;5117321;27;20042;-72
2023/03/27 03:33:10;;;;;;;7.32;2.40;;;;;;;;;;5117917;27;20802;-72
2023/03/27 03:35:37;;;;;;;6.88;2.08;;;;;;;;;;5117393;27;20039;-72
2023/03/27 03:38:05;;;;;;;5.68;1.83;;;;;;;;;;5117572;27;20050;-72
2023/03/27 03:40:31;;;;;;;8.43;2.10;;;;;;;;;;5116880;27;20053;-72
2023/03/27 03:42:57;;;;;;;11.10;2.42;;;;;;;;;;5117189;27;20126;-72
2023/03/27 03:45:24;;;;;;;10.68;2.88;;;;;;;;;;5116766;27;20077;-72
2023/03/27 03:47:50;;;;;;;10.27;2.47;;;;;;;;;;5116895;27;20036;-72
2023/03/27 03:50:16;;;;;;;8.52;2.15;;;;;;;;;;5116827;27;20122;-72
2023/03/27 03:52:42;;;;;;;10.13;2.03;;;;;;;;;;5129505;27;20066;-72
2023/03/27 03:55:12;;;;;;;11.60;2.20;;;;;;;;;;5117079;27;20570;-72
2023/03/27 03:57:39;;;;;;;11.30;2.72;;;;;;;;;;5116501;27;20088;-72
2023/03/27 04:00:11;;;;;;;7.53;1.88;;;;;;;;;;5145697;27;20047;-72
2023/03/27 04:02:39;;;;;;;9.82;2.38;;;;;;;;;;5116745;27;20057;-72
2023/03/27 04:05:06;;;;;;;13.30;2.28;;;;;;;;;;5116658;27;20054;-71
2023/03/27 04:07:34;;;;;;;12.32;2.30;;;;;;;;;;5116593;27;20118;-71
2023/03/27 04:10:01;;;;;;;11.02;2.20;;;;;;;;;;5116825;27;20062;-72
2023/03/27 04:12:27;;;;;;;9.80;2.17;;;;;;;;;;5116721;27;20398;-72
2023/03/27 04:14:54;;;;;;;15.80;3.45;;;;;;;;;;5116687;27;20038;-72
2023/03/27 04:17:20;;;;;;;10.65;2.10;;;;;;;;;;5116593;27;20075;-72
2023/03/27 04:19:46;;;;;;;8.05;2.05;;;;;;;;;;5116514;27;20139;-72
2023/03/27 04:22:16;;;;;;;8.13;1.60;;;;;;;;;;5116403;27;20047;-72
2023/03/27 04:24:43;;;;;;;6.45;1.63;;;;;;;;;;5116235;27;20042;-72
2023/03/27 04:27:09;;;;;;;5.68;1.75;;;;;;;;;;5116868;27;20038;-72
2023/03/27 04:29:35;;;;;;;7.38;1.75;;;;;;;;;;5116375;27;20042;-72
2023/03/27 04:32:02;;;;;;;5.75;1.52;;;;;;;;;;5116455;27;20114;-72
2023/03/27 04:34:28;;;;;;;2.78;1.50;;;;;;;;;;5116042;27;20035;-72
2023/03/27 04:36:54;;;;;;;11.07;1.67;;;;;;;;;;5116103;27;20031;-72
2023/03/27 04:39:21;;;;;;;10.32;1.98;;;;;;;;;;5116210;27;20031;-72
2023/03/27 04:41:50;;;;;;;8.60;1.83;;;;;;;;;;5116009;27;20070;-73
2023/03/27 04:44:16;;;;;;;11.25;1.98;;;;;;;;;;5099107;27;20027;-73
2023/03/27 04:46:49;;;;;;;5.35;1.65;;;;;;;;;;5115990;27;20458;-74
2023/03/27 04:49:19;;;;;;;5.90;1.75;;;;;;;;;;5116157;27;20389;-74
2023/03/27 04:51:48;;;;;;;8.52;1.52;;;;;;;;;;5136864;27;20035;-74
2023/03/27 04:54:14;;;;;;;9.05;1.80;;;;;;;;;;5147198;27;20031;-74
2023/03/27 04:56:40;;;;;;;9.63;1.65;;;;;;;;;;5098998;27;20050;-74
2023/03/27 04:59:07;;;;;;;9.10;1.92;;;;;;;;;;5115350;27;20042;-74
2023/03/27 05:01:34;;;;;;;10.43;2.00;;;;;;;;;;5115512;27;20413;-73
2023/03/27 05:04:03;;;;;;;6.57;1.60;;;;;;;;;;5116003;27;20032;-73
2023/03/27 05:06:31;;;;;;;7.43;1.95;;;;;;;;;;5115318;27;20149;-72
2023/03/27 05:08:57;;;;;;;8.05;1.70;;;;;;;;;;5114798;27;20110;-71
2023/03/27 05:11:23;;;;;;;9.88;1.85;;;;;;;;;;5098465;27;20039;-71
2023/03/27 05:13:50;;;;;;;7.95;1.80;;;;;;;;;;5115786;27;20084;-72
2023/03/27 05:16:17;;;;;;;10.32;1.48;;;;;;;;;;5098540;27;20072;-71
2023/03/27 05:18:46;;;;;;;6.72;1.33;;;;;;;;;;5098460;27;20134;-71
2023/03/27 05:21:12;;;;;;;4.55;1.50;;;;;;;;;;5147719;27;20043;-72
2023/03/27 05:23:38;;;;;;;5.97;1.48;;;;;;;;;;5115409;27;20047;-69
2023/03/27 05:26:05;;;;;;;7.70;1.77;;;;;;;;;;5114809;27;20039;-69
2023/03/27 05:28:31;;;;;;;6.53;1.42;;;;;;;;;;5115253;27;20031;-70
2023/03/27 05:30:57;;;;;;;10.70;1.83;;;;;;;;;;5114886;27;20038;-70
2023/03/27 05:33:23;;;;;;;3.97;1.25;;;;;;;;;;5114994;27;20502;-72
2023/03/27 05:35:51;;;;;;;8.23;1.63;;;;;;;;;;5114814;27;20039;-72
2023/03/27 05:38:17;;;;;;;9.18;1.55;;;;;;;;;;5114788;27;20055;-70
2023/03/27 05:40:43;;;;;;;9.35;1.83;;;;;;;;;;5115004;27;20038;-72
2023/03/27 05:43:09;;;;;;;3.28;1.20;;;;;;;;;;5114946;27;20035;-69
2023/03/27 05:45:36;;;;;;;5.65;1.73;;;;;;;;;;5114824;27;20035;-69
2023/03/27 05:48:02;;;;;;;3.83;1.25;;;;;;;;;;5097486;27;20118;-69
2023/03/27 05:50:33;;;;;;;7.82;1.38;;;;;;;;;;5114219;27;20034;-69
2023/03/27 05:53:00;;;;;;;3.08;1.10;;;;;;;;;;5115812;27;20031;-69
2023/03/27 05:55:27;;;;;;;9.55;1.92;;;;;;;;;;5115748;27;20043;-69
2023/03/27 05:57:53;;;;;;;10.02;1.38;;;;;;;;;;5119523;28;20058;-69
2023/03/27 06:00:24;;;;;;;6.03;1.50;;;;;;;;;;5095404;28;20050;-70
2023/03/27 06:02:52;;;;;;;4.93;1.35;;;;;;;;;;5099468;28;20503;-69
2023/03/27 06:05:19;;;;;;;6.93;1.75;;;;;;;;;;5115927;28;20043;-72
2023/03/27 06:07:46;;;;;;;8.82;1.70;;;;;;;;;;5098517;27;20028;-69
2023/03/27 06:10:13;;;;;;;7.75;1.60;;;;;;;;;;5115993;28;20100;-69
2023/03/27 06:12:40;;;;;;;9.30;2.17;;;;;;;;;;5120868;28;20031;-69
2023/03/27 06:15:08;;;;;;;3.70;1.50;;;;;;;;;;5112236;28;20059;-69
2023/03/27 06:17:35;;;;;;;7.18;1.65;;;;;;;;;;5095423;28;20075;-69
2023/03/27 06:20:08;;;;;;;8.90;2.00;;;;;;;;;;5106815;27;20065;-70
2023/03/27 06:22:37;;;;;;;6.75;1.60;;;;;;;;;;5119957;27;20039;-69
2023/03/27 06:25:05;;;;;;;6.70;1.60;;;;;;;;;;5119415;27;20043;-70
2023/03/27 06:27:31;;;;;;;7.00;1.73;;;;;;;;;;5154321;27;20042;-70
2023/03/27 06:29:57;;;;;;;6.50;1.52;;;;;;;;;;5119482;27;20042;-70
2023/03/27 06:32:23;;;;;;;3.97;1.50;;;;;;;;;;5154028;27;20509;-70
2023/03/27 06:34:49;;;;;;;12.52;1.27;;;;;;;;;;5119952;27;20103;-70
2023/03/27 06:37:15;;;;;;;7.72;1.50;;;;;;;;;;5118993;27;20103;-71
2023/03/27 06:39:43;;;;;;;8.50;1.95;;;;;;;;;;5117878;27;20039;-70
2023/03/27 06:42:09;;;;;;;7.10;1.48;;;;;;;;;;5118192;27;20054;-70
2023/03/27 06:44:35;;;;;;;6.88;1.60;;;;;;;;;;5118416;27;20038;-70
2023/03/27 06:47:01;;;;;;;7.32;2.08;;;;;;;;;;5118611;27;20054;-70
2023/03/27 06:49:27;;;;;;;10.52;1.60;;;;;;;;;;5118155;27;20035;-70
2023/03/27 06:51:53;;;;;;;6.32;1.77;;;;;;;;;;5117993;27;20554;-70
2023/03/27 06:54:19;;;;;;;8.20;1.80;;;;;;;;;;5101049;27;20031;-70
2023/03/27 06:56:45;;;;;;;9.38;1.90;;;;;;;;;;5150460;27;20039;-71
2023/03/27 06:59:12;;;;;;;8.65;1.42;;;;;;;;;;5118295;27;20449;-71
2023/03/27 07:01:38;;;;;;;11.10;1.60;;;;;;;;;;5117829;27;20074;-71
2023/03/27 07:04:05;;;;;;;10.93;1.67;;;;;;;;;;5100844;27;20490;-71
2023/03/27 07:06:31;;;;;;;4.65;1.40;;;;;;;;;;5100196;27;20060;-71
2023/03/27 07:08:57;;;;;;;7.82;1.70;;;;;;;;;;5115452;27;20444;-71
2023/03/27 07:11:24;;;;;;;8.70;1.83;;;;;;;;;;5118122;27;20039;-71
2023/03/27 07:13:51;;;;;;;7.60;2.65;;;;;;;;;;5119000;27;20047;-71
2023/03/27 07:16:17;;;;;;;9.90;1.85;;;;;;;;;;5135997;27;20089;-72
2023/03/27 07:18:43;;;;;;;5.63;1.60;;;;;;;;;;5118684;27;20059;-72
2023/03/27 07:21:11;;;;;;;5.40;1.33;;;;;;;;;;5118466;27;20130;-71
2023/03/27 07:23:37;;;;;;;5.25;2.03;;;;;;;;;;5118645;27;20501;-72
2023/03/27 07:26:04;;;;;;;8.00;1.70;;;;;;;;;;5118600;27;20066;-71
2023/03/27 07:28:31;;;;;;;8.07;1.50;;;;;;;;;;5101803;27;20047;-71
2023/03/27 07:30:57;;;;;;;7.82;1.27;;;;;;;;;;5117155;27;20034;-71
2023/03/27 07:33:23;;;;;;;6.88;1.55;;;;;;;;;;5117184;27;20027;-71
2023/03/27 07:35:50;;;;;;;7.03;1.60;;;;;;;;;;5140787;27;20035;-72
2023/03/27 07:38:17;;;;;;;5.80;1.50;;;;;;;;;;5125050;27;20099;-73
2023/03/27 07:40:45;;;;;;;4.28;1.60;;;;;;;;;;5100635;27;20039;-73
2023/03/27 07:43:11;;;;;;;10.48;1.85;;;;;;;;;;5117086;27;20039;-73
2023/03/27 07:45:37;;;;;;;5.22;1.75;;;;;;;;;;5117027;27;20091;-71
2023/03/27 07:48:05;;;;;;;6.35;1.50;;;;;;;;;;5126223;27;20039;-73
2023/03/27 07:50:32;;;;;;;8.93;1.40;;;;;;;;;;5113851;27;20041;-76
2023/03/27 07:52:58;;;;;;;6.95;1.73;;;;;;;;;;5100673;27;20399;-72
2023/03/27 07:55:28;;;;;;;6.03;1.50;;;;;;;;;;5146174;27;20415;-71
2023/03/27 07:57:54;;;;;;;8.38;1.73;;;;;;;;;;5114639;27;20081;-72
2023/03/27 08:00:24;;;;;;;12.55;2.78;;;;;;;;;;5116192;27;20055;-72
2023/03/27 08:02:50;;;;;;;14.63;2.40;;;;;;;;;;5099081;27;20035;-72
2023/03/27 08:05:17;;;;;;;9.15;1.60;;;;;;;;;;5104925;27;20032;-72
2023/03/27 08:07:46;;;;;;;2.28;1.20;;;;;;;;;;5117336;27;20106;-72
2023/03/27 08:10:14;;;;;;;8.18;1.30;;;;;;;;;;5116881;27;20035;-73
2023/03/27 08:12:41;;;;;;;4.32;1.20;;;;;;;;;;5117269;27;20039;-72
2023/03/27 08:15:08;;;;;;;7.82;1.40;;;;;;;;;;5117164;27;20118;-73
2023/03/27 08:17:35;;;;;;;7.05;1.52;;;;;;;;;;5116931;27;20074;-72
2023/03/27 08:20:03;;;;;;;8.18;1.52;;;;;;;;;;5117005;27;20063;-73
2023/03/27 08:22:29;;;;;;;9.52;1.80;;;;;;;;;;5117401;27;20054;-73
2023/03/27 08:24:56;;;;;;;4.90;1.38;;;;;;;;;;5116788;27;20047;-72
2023/03/27 08:27:22;;;;;;;5.07;1.52;;;;;;;;;;5117413;27;20066;-73
2023/03/27 08:29:48;;;;;;;4.05;1.45;;;;;;;;;;5117022;27;20031;-72
2023/03/27 08:32:14;;;;;;;4.32;1.30;;;;;;;;;;5116394;27;20042;-73
2023/03/27 08:34:41;;;;;;;5.60;1.40;;;;;;;;;;5116960;27;20070;-73
2023/03/27 08:37:07;;;;;;;5.55;1.60;;;;;;;;;;5116763;27;20062;-73
2023/03/27 08:39:33;;;;;;;4.95;1.65;;;;;;;;;;5134867;27;20110;-73
2023/03/27 08:42:01;;;;;;;8.45;1.90;;;;;;;;;;5116498;27;20035;-72
2023/03/27 08:44:29;;;;;;;8.20;1.83;;;;;;;;;;5115041;27;20027;-72
2023/03/27 08:46:55;;;;;;;10.18;1.95;;;;;;;;;;5117003;27;20039;-73
2023/03/27 08:49:22;;;;;;;7.32;1.80;;;;;;;;;;5099283;27;20035;-72
2023/03/27 08:51:59;;;;;;;3.83;1.50;;;;;;;;;;5115936;27;20113;-73
2023/03/27 08:54:28;;;;;;;11.95;2.08;;;;;;;;;;5115529;27;20096;-73
2023/03/27 08:56:55;;;;;;;10.32;2.03;;;;;;;;;;5114995;27;20058;-72
2023/03/27 08:59:22;;;;;;;10.48;1.98;;;;;;;;;;5115533;27;20496;-72
2023/03/27 09:02:13;;;;;;;7.68;1.58;;;;;;;;;;5115502;27;20049;-71
2023/03/27 09:04:46;;;;;;;9.52;1.55;;;;;;;;;;5114979;27;20042;-72
2023/03/27 09:07:21;;;;;;;7.55;1.88;;;;;;;;;;5115005;27;20505;-72
2023/03/27 09:09:58;;;;;;;7.25;1.35;;;;;;;;;;5124106;27;20027;-72
2023/03/27 09:12:34;;;;;;;8.00;1.48;;;;;;;;;;5133427;27;20074;-72
2023/03/27 09:15:04;;;;;;;8.38;1.67;;;;;;;;;;5115053;27;20461;-72
2023/03/27 09:17:52;;;;;;;4.32;1.50;;;5.20;99.90;;;;;;5115274;27;20035;-72
2023/03/27 09:20:33;;;;;;;4.80;1.60;;;;;;;;;;5114965;27;20567;-73
2023/03/27 09:23:02;;;;;;;5.10;1.70;;;;;;;;;;5129924;27;20470;-72
2023/03/27 09:25:31;;;;;;;4.75;1.48;;;;;;;;;;5110263;27;20070;-72
2023/03/27 09:27:57;;;;;;;3.92;1.20;;;;;;;;;;5115018;27;20031;-72
2023/03/27 09:30:28;;;;;;;4.00;1.70;;;;;;;;;;5115047;27;20384;-72
2023/03/27 09:32:56;;;;;;;3.13;1.20;;;;;;;;;;5097849;27;20035;-72
2023/03/27 09:35:22;;;;;;;4.93;1.65;;;;;;;;;;5115267;27;20479;-72
2023/03/27 09:37:57;;;;;;;5.65;1.50;;;;;;;;;;5114964;27;20422;-72
2023/03/27 09:40:32;;;;;;;8.48;2.03;;;;;;;;;;5114880;27;20050;-72
2023/03/27 09:43:02;;;;;;;8.27;1.38;;;;;;;;;;5114732;27;20078;-71
2023/03/27 09:45:29;;;;;;;10.45;1.40;;;;;;;;;;5114793;28;20035;-72
2023/03/27 09:48:02;;;;;;;5.60;1.60;;;;;;;;;;5114562;28;20099;-72
2023/03/27 09:50:29;;;;;;;6.88;1.77;;;;;;;;;;5114490;27;20142;-72
2023/03/27 09:53:18;;;;;;;6.93;1.63;;;;;;;;;;5114217;27;20114;-72
2023/03/27 09:55:51;;;;;;;4.85;1.33;;;;;;;;;;5132555;27;20451;-72
2023/03/27 09:58:24;;;;;;;11.18;2.00;;;;;;;;;;5114464;27;20031;-72
2023/03/27 10:01:05;;;;;;;5.22;1.40;;;;;;;;;;5112282;28;20046;-71
2023/03/27 10:03:36;;;;;;;12.02;1.48;;;;;;;;;;5114576;28;20042;-72
2023/03/27 10:06:09;;;;;;;6.60;1.20;;;;;;;;;;5145081;27;20050;-72
2023/03/27 10:08:38;;;;;;;6.88;1.60;;;;;;;;;;5114696;28;20110;-72
2023/03/27 10:11:07;;;;;;;6.45;1.33;;;;;;;;;;5100544;28;20035;-72
2023/03/27 10:13:33;;;;;;;8.52;1.40;;;;;;;;;;5114228;27;20035;-72
2023/03/27 10:16:00;;;;;;;11.95;2.13;;;;;;;;;;5114453;28;20043;-72
2023/03/27 10:18:27;;;;;;;6.13;1.23;;;;;;;;;;5114464;28;20043;-72
2023/03/27 10:20:54;;;;;;;10.73;1.88;;;;;;;;;;5125946;28;20047;-72
2023/03/27 10:23:25;;;;;;;7.43;1.40;;;;;;;;;;5114377;28;20031;-73
2023/03/27 10:25:52;;;;;;;7.82;1.48;;;;;;;;;;5114501;28;20553;-72
2023/03/27 10:28:19;;;;;;;2.75;1.17;;;;;;;;;;5113722;28;20035;-71
2023/03/27 10:30:45;;;;;;;2.58;1.05;;;;;;;;;;5134744;27;20390;-72
2023/03/27 10:33:12;;;;;;;4.07;1.05;;;;;;;;;;5114674;28;20061;-72
2023/03/27 10:35:44;;;;;;;5.88;1.38;;;;;;;;;;5114364;28;20092;-72
2023/03/27 10:38:12;;;;;;;5.32;1.00;;;;;;;;;;5097343;28;20039;-72
2023/03/27 10:40:39;;;;;;;7.38;1.33;;;;;;;;;;5114334;28;20031;-72
2023/03/27 10:43:13;;;;;;;5.97;1.45;;;;;;;;;;5130364;27;20047;-72
2023/03/27 10:45:42;;;;;;;6.40;1.42;;;;;;;;;;5113668;28;20486;-71
2023/03/27 10:48:08;;;;;;;11.80;2.08;;;;;;;;;;5113812;28;20043;-72
2023/03/27 10:50:46;;;;;;;3.55;1.20;;;;;;;;;;5097403;28;20035;-72
2023/03/27 10:53:15;;;;;;;8.95;1.50;;;;;;;;;;5120769;28;20493;-72
2023/03/27 10:55:50;;;;;;;9.25;1.45;;;;;;;;;;5114386;28;20039;-72
2023/03/27 10:58:25;;;;;;;6.18;1.55;;;;;;;;;;5114107;28;20047;-72
2023/03/27 11:00:56;;;;;;;7.22;1.55;;;;;;;;;;5114221;28;20096;-72
2023/03/27 11:03:25;;;;;;;9.65;1.88;;;;;;;;;;5114095;27;20046;-71
2023/03/27 11:05:53;;;;;;;10.82;1.90;;;;;;;;;;5129521;27;20039;-71
2023/03/27 11:08:34;;;;;;;3.83;1.42;;;;;;;;;;5116659;27;20471;-72
2023/03/27 11:11:06;;;;;;;8.65;1.52;;;;;;;;;;5123129;27;20039;-72
2023/03/27 11:13:35;;;;;;;8.98;1.58;;;;;;;;;;5117226;27;20143;-72
2023/03/27 11:16:16;;;;;;;7.78;1.55;;;;;;;;;;5117410;27;20704;-72
2023/03/27 11:18:46;;;;;;;11.02;1.73;;;;;;;;;;5098357;27;20031;-72
2023/03/27 11:21:26;;;;;;;9.75;1.80;;;;;;;;;;5117315;27;20051;-71
2023/03/27 11:23:56;;;;;;;7.45;1.50;;;;;;;;;;5117424;27;20046;-71
2023/03/27 11:26:24;;;;;;;11.68;2.33;;;;;;;;;;5116165;27;20038;-71
2023/03/27 11:28:56;;;;;;;10.20;1.88;;;;;;;;;;5117069;27;20039;-71
2023/03/27 11:31:32;;;;;;;6.82;1.80;;;;;;;;;;5117296;27;20035;-71
2023/03/27 11:33:59;;;;;;;10.20;1.58;;;;;;;;;;5116015;27;20039;-71
2023/03/27 11:37:01;;;;;;;8.02;2.03;;;;;;;;;;5118738;27;20046;-71
2023/03/27 11:39:47;;;;;;;9.30;1.40;;;;;;;;;;5017554;28;20554;-71
2023/03/27 11:42:23;;;;;;;8.45;1.50;;;;;;;;;;5111167;27;20053;-70
2023/03/27 11:44:49;;;;;;;9.73;1.60;;;;;;;;;;5098923;27;20063;-71
2023/03/27 11:47:42;;;;;;;12.50;2.35;;;;;;;;;;5082775;27;20031;-71
2023/03/27 11:50:08;;;;;;;7.80;1.58;;;;;;;;;;5116710;27;20404;-71
2023/03/27 11:52:40;;;;;;;7.03;1.67;;;;;;;;;;5142470;27;20487;-70
2023/03/27 11:55:10;;;;;;;9.15;1.80;;;;;;;;;;5116739;27;20598;-71
2023/03/27 11:57:47;;;;;;;10.30;2.63;;;;;;;;;;5099800;27;20122;-71
2023/03/27 12:00:17;;;;;;;9.35;2.17;;;;;;;;;;5116764;27;20061;-71
2023/03/27 12:02:44;;;;;;;6.72;1.85;;;;;;;;;;5116632;27;20091;-71
2023/03/27 12:05:25;;;;;;;13.35;2.17;;;;;;;;;;5099860;27;20046;-71
2023/03/27 12:07:51;;;;;;;13.52;1.83;;;;;;;;;;5115131;27;20364;-70
2023/03/27 12:10:26;;;;;;;8.63;1.95;;;;;;;;;;5113301;27;20042;-71
2023/03/27 12:13:18;;;;;;;10.27;1.92;;;;;;;;;;5099449;27;20031;-70
2023/03/27 12:15:44;;;;;;;13.63;1.75;;;;;;;;;;5115162;27;20043;-71
2023/03/27 12:18:10;;;;;;;12.40;2.28;;;;;;;;;;5131391;27;20058;-71
2023/03/27 12:20:51;;;;;;;8.60;1.60;;;;;;;;;;5116242;27;20141;-71
2023/03/27 12:23:17;;;;;;;5.60;1.70;;;;;;;;;;5100243;27;20100;-71
2023/03/27 12:25:47;;;;;;;9.73;1.60;;;;;;;;;;5117546;27;20087;-71
2023/03/27 12:28:27;;;;;;;11.10;1.85;;;;;;;;;;5117680;27;20032;-69
2023/03/27 12:30:56;;;;;;;8.30;1.40;;;;;;;;;;5117847;27;20032;-69
2023/03/27 12:33:29;;;;;;;17.25;2.00;;;;;;;;;;5117434;27;20031;-69
2023/03/27 12:35:56;;;;;;;15.82;1.88;;;;;;;;;;5117409;27;20103;-69
2023/03/27 12:38:28;;;;;;;15.70;2.50;;;;;;;;;;5117144;27;20047;-69
2023/03/27 12:41:13;;;;;;;11.10;1.83;;;;;;;;;;5117386;27;20042;-69
2023/03/27 12:43:43;;;;;;;11.70;1.88;;;;;;;;;;5117262;27;20042;-70
2023/03/27 12:46:30;;;;;;;10.50;2.15;;;;;;;;;;5151477;27;20043;-69
2023/03/27 12:49:23;;;;;;;12.50;1.88;;;;;;;;;;5117765;27;20129;-69
2023/03/27 12:51:56;;;;;;;9.95;1.67;;;;;;;;;;5116773;27;20035;-69
2023/03/27 12:54:30;;;;;;;6.00;1.80;;;;;;;;;;5117269;27;20126;-70
2023/03/27 12:57:05;;;;;;;9.38;2.00;;;;;;;;;;5134203;27;20084;-68
2023/03/27 12:59:33;;;;;;;7.60;1.98;;;;;;;;;;5116840;27;20035;-68
2023/03/27 13:02:05;;;;;;;8.98;1.70;;;;;;;;;;5117346;27;20103;-68
2023/03/27 13:04:43;;;;;;;13.63;2.25;;;;;;;;;;5116572;27;20475;-72
2023/03/27 13:07:30;;;;;;;11.48;1.73;;;;;;;;;;5116576;27;20039;-73
2023/03/27 13:09:56;;;;;;;9.98;2.15;;;;;;;;;;5150908;27;20043;-72
2023/03/27 13:12:27;;;;;;;11.40;2.28;;;;;;;;;;5133687;27;20043;-69
2023/03/27 13:14:56;;;;;;;13.43;2.83;;;;;;;;;;5134499;27;20424;-69
2023/03/27 13:17:25;;;;;;;12.55;2.00;;;;;;;;;;5116546;27;20039;-69
2023/03/27 13:20:11;;;;;;;6.95;1.33;;;;;;;;;;5104470;28;20047;-69
2023/03/27 13:22:58;;;;;;;4.20;1.50;;;;;;;;;;5092619;28;20055;-70
2023/03/27 13:25:30;;;;;;;7.53;1.48;;;;;;;;;;5076033;28;20445;-69
2023/03/27 13:28:15;;;;;;;4.90;1.38;;;;;;;;;;5075816;28;20044;-73
2023/03/27 13:30:45;;;;;;;6.00;1.52;;;;;;;;;;5092279;28;20043;-71
2023/03/27 13:33:15;;;;;;;8.65;1.55;;;;;;;;;;5092633;28;20047;-70
2023/03/27 13:35:52;;;;;;;10.23;2.03;;;;;;;;;;5092303;28;20093;-73
2023/03/27 13:38:38;;;;;;;10.02;1.92;;;;;;;;;;5075677;28;20051;-73
2023/03/27 13:41:24;;;;;;;6.88;1.60;;;;;;;;;;5092402;28;20079;-72
2023/03/27 13:43:50;;;;;;;11.05;2.40;;;;;;;;;;5062011;28;20440;-73
2023/03/27 13:46:17;;;;;;;8.07;1.85;;;;;;;;;;5075396;28;20048;-73
2023/03/27 13:48:44;;;;;;;9.60;2.08;;;;;;;;;;5092388;28;20044;-70
2023/03/27 13:51:25;;;;;;;14.63;2.05;;;;;;;;;;5092739;28;20076;-70
2023/03/27 13:54:11;;;;;;;18.67;2.85;;;;;;;;;;5092132;28;20047;-70
2023/03/27 13:56:40;;;;;;;14.23;2.17;;;;;;;;;;5092277;28;20062;-70
2023/03/27 13:59:26;;;;;;;7.43;2.22;;;;;;;;;;5075308;28;20476;-70
2023/03/27 14:02:11;;;;;;;13.40;1.92;;;;;;;;;;5092194;28;20078;-69
2023/03/27 14:05:03;;;;;;;7.85;1.60;;;7.50;99.90;;;;;;5092115;28;20500;-70
2023/03/27 14:07:48;;;;;;;7.05;1.70;;;;;;;;;;5092399;28;20046;-70
2023/03/27 14:10:39;;;;;;;9.85;1.55;;;7.80;99.90;;;;;;5092025;28;20052;-71
2023/03/27 14:13:23;;;;;;;7.13;1.80;;;;;;;;;;5083754;28;20072;-70
2023/03/27 14:15:55;;;;;;;4.90;1.27;;;;;;;;;;5075224;28;20173;-69
2023/03/27 14:18:21;;;;;;;6.30;1.35;;;;;;;;;;5092017;28;20047;-69
2023/03/27 14:20:49;;;;;;;8.25;1.38;;;;;;;;;;5091577;28;20052;-70
2023/03/27 14:23:17;;;;;;;5.82;1.20;;;;;;;;;;5091805;28;20102;-69
2023/03/27 14:25:46;;;;;;;5.07;1.25;;;;;;;;;;5091942;28;20469;-72
2023/03/27 14:28:33;;;;;;;6.20;1.30;;;;;;;;;;5091884;28;20085;-72
2023/03/27 14:31:01;;;;;;;2.90;1.30;;;;;;;;;;5090832;28;20043;-72
2023/03/27 14:33:27;;;;;;;3.65;1.20;;;;;;;;;;5074979;28;20051;-73
2023/03/27 14:36:02;;;;;;;7.15;1.50;;;;;;;;;;5091832;28;20088;-73
2023/03/27 14:38:33;;;;;;;7.50;1.40;;;;;;;;;;5091708;28;20052;-72
2023/03/27 14:41:00;;;;;;;7.55;1.50;;;;;;;;;;5092340;28;20047;-72
2023/03/27 14:43:28;;;;;;;6.57;1.40;;;;;;;;;;5095617;28;20105;-72
2023/03/27 14:46:05;;;;;;;5.60;1.20;;;;;;;;;;5094861;28;20115;-72
2023/03/27 14:48:37;;;;;;;6.00;1.10;;;;;;;;;;5095017;28;20040;-73
2023/03/27 14:51:05;;;;;;;4.63;1.17;;;;;;;;;;5094554;28;20049;-73
2023/03/27 14:53:42;;;;;;;5.55;1.30;;;;;;;;;;5077479;28;20040;-73
2023/03/27 14:56:18;;;;;;;6.28;1.80;;;;;;;;;;5108992;28;20373;-73
2023/03/27 14:58:45;;;;;;;8.73;1.70;;;;;;;;;;5115577;27;20083;-73
2023/03/27 15:01:15;;;;;;;5.80;1.50;;;;;;;;;;5094901;28;20048;-73